Time;durP1;ratioP1;P1;durP2;ratioP2;P2;SDS_P1;SDS_P2;PMS_P1;PMS_P2;Temp;Humidity;BMP_temperature;BMP_pressure;BME280_temperature;BME280_humidity;BME280_pressure;Samples;Min_cycle;Max_cycle;Signal;HPM_P1;HPM_P2
2021/03/03 00:01:10;;;;;;;57.15;35.67;;;;;;;;;;5053725;28;20396;-66
2021/03/03 00:04:14;;;;;;;55.22;36.92;;;;;;;;;;5053574;28;20056;-67
2021/03/03 00:07:19;;;;;;;57.90;35.47;;;;;;;;;;5053684;28;20052;-66
2021/03/03 00:10:23;;;;;;;57.45;36.08;;;;;;;;;;5053758;28;20523;-67
2021/03/03 00:13:27;;;;;;;57.50;35.10;;;;;;;;;;5052952;28;20044;-66
2021/03/03 00:16:32;;;;;;;49.63;32.50;;;;;;;;;;5053264;28;20048;-66
2021/03/03 00:19:36;;;;;;;59.22;35.45;;;;;;;;;;5053234;28;20055;-66
2021/03/03 00:22:41;;;;;;;56.08;33.72;;;;;;;;;;5053429;28;20048;-66
2021/03/03 00:25:45;;;;;;;57.22;34.17;;;;;;;;;;5053240;28;20052;-66
2021/03/03 00:28:49;;;;;;;54.63;33.70;;;;;;;;;;5053336;28;20495;-66
2021/03/03 00:31:54;;;;;;;48.63;30.55;;;;;;;;;;5053438;28;20108;-66
2021/03/03 00:34:58;;;;;;;50.05;30.73;;;;;;;;;;5053398;28;20058;-66
2021/03/03 00:38:02;;;;;;;57.78;31.70;;;;;;;;;;5053091;28;20048;-66
2021/03/03 00:41:07;;;;;;;51.92;30.65;;;;;;;;;;5053215;28;20148;-66
2021/03/03 00:44:11;;;;;;;57.42;32.65;;;;;;;;;;5052900;28;20044;-66
2021/03/03 00:47:15;;;;;;;48.78;28.20;;;;;;;;;;5052693;28;20048;-66
2021/03/03 00:50:23;;;;;;;39.45;25.25;;;;;;;;;;5052959;28;20052;-66
2021/03/03 00:53:31;;;;;;;42.55;25.95;;;;;;;;;;5051959;28;20040;-66
2021/03/03 00:56:36;;;;;;;35.20;22.52;;;;;;;;;;5052808;28;20511;-66
2021/03/03 00:59:43;;;;;;;47.53;25.08;;;;;;;;;;5051630;28;20052;-66
2021/03/03 01:02:47;;;;;;;37.53;23.48;;;;;;;;;;5052575;28;20468;-66
2021/03/03 01:05:52;;;;;;;38.35;23.73;;;;;;;;;;5051545;28;20047;-66
2021/03/03 01:08:56;;;;;;;35.10;23.27;;;;;;;;;;5051623;28;20048;-66
2021/03/03 01:12:01;;;;;;;37.42;22.67;;;;;;;;;;5052415;28;20111;-66
2021/03/03 01:15:07;;;;;;;37.25;22.02;;;;;;;;;;5051637;28;20043;-66
2021/03/03 01:18:12;;;;;;;32.75;22.10;;;;;;;;;;5051377;28;20087;-66
2021/03/03 01:21:17;;;;;;;31.92;20.75;;;;;;;;;;5052336;28;20060;-66
2021/03/03 01:24:21;;;;;;;37.83;19.70;;;;;;;;;;5051372;28;20044;-66
2021/03/03 01:27:26;;;;;;;33.53;19.30;;;;;;;;;;5051889;28;20103;-66
2021/03/03 01:30:30;;;;;;;32.38;19.40;;;;;;;;;;5051843;28;20036;-66
2021/03/03 01:33:34;;;;;;;29.13;19.00;;;;;;;;;;5052103;28;20388;-66
2021/03/03 01:36:39;;;;;;;31.67;16.77;;;;;;;;;;5051672;28;20055;-66
2021/03/03 01:39:43;;;;;;;26.83;15.43;;;;;;;;;;5051593;28;20063;-66
2021/03/03 01:42:48;;;;;;;31.55;16.00;;;;;;;;;;5051662;28;20044;-66
2021/03/03 01:45:52;;;;;;;25.80;15.05;;;;;;;;;;5051936;28;20044;-66
2021/03/03 01:48:56;;;;;;;30.17;15.60;;;;;;;;;;5051416;28;20059;-66
2021/03/03 01:52:01;;;;;;;23.60;15.15;;;;;;;;;;5051485;28;20403;-66
2021/03/03 01:55:05;;;;;;;27.60;16.15;;;;;;;;;;5051786;28;20064;-66
2021/03/03 01:58:10;;;;;;;26.08;15.38;;;;;;;;;;5051461;28;20130;-66
2021/03/03 02:01:14;;;;;;;24.25;14.93;;;;;;;;;;5051403;28;20376;-66
2021/03/03 02:04:19;;;;;;;28.70;15.25;;;;;;;;;;5051610;28;20059;-66
2021/03/03 02:07:29;;;;;;;22.90;13.77;;;;;;;;;;5051305;28;20048;-66
2021/03/03 02:10:52;;;;;;;26.35;15.02;;;;;;;;;;5051572;28;20044;-66
2021/03/03 02:13:58;;;;;;;24.45;13.05;;;;;;;;;;5051551;28;20048;-66
2021/03/03 02:17:03;;;;;;;20.33;13.27;;;;;;;;;;5051444;28;20531;-66
2021/03/03 02:20:09;;;;;;;21.13;13.05;;;;;;;;;;5051202;28;20056;-66
2021/03/03 02:23:17;;;;;;;22.65;13.02;;;;;;;;;;5051421;28;20048;-66
2021/03/03 02:26:33;;;;;;;20.83;12.15;;;;;;;;;;5050935;28;20400;-66
2021/03/03 02:29:37;;;;;;;19.70;12.40;;;;;;;;;;5051403;28;20048;-66
2021/03/03 02:32:41;;;;;;;18.38;12.07;;;;;;;;;;5051288;28;20052;-67
2021/03/03 02:35:46;;;;;;;23.55;12.82;;;;;;;;;;5051023;28;20047;-67
2021/03/03 02:38:51;;;;;;;18.30;11.75;;;;;;;;;;5050767;28;20071;-66
2021/03/03 02:41:56;;;;;;;22.75;13.32;;;;;;;;;;5051240;28;20044;-66
2021/03/03 02:45:01;;;;;;;26.40;13.05;;;;;;;;;;5051200;28;20044;-66
2021/03/03 02:48:07;;;;;;;26.38;14.70;;;;;;;;;;5050938;28;20384;-66
2021/03/03 02:51:14;;;;;;;20.52;12.68;;;;;;;;;;5051192;28;20055;-66
2021/03/03 02:54:18;;;;;;;21.67;13.10;;;;;;;;;;5051041;28;20044;-67
2021/03/03 02:57:23;;;;;;;24.17;12.55;;;;;;;;;;5050920;28;20095;-66
2021/03/03 03:00:54;;;;;;;20.35;12.38;;;;;;;;;;5049881;28;20056;-66
2021/03/03 03:04:02;;;;;;;26.83;13.85;;;;;;;;;;5050792;28;20056;-66
2021/03/03 03:07:08;;;;;;;27.25;14.07;;;;;;;;;;5049922;28;20048;-66
2021/03/03 03:10:13;;;;;;;21.25;12.52;;;;;;;;;;5050540;28;20048;-66
2021/03/03 03:13:19;;;;;;;22.33;12.77;;;;;;;;;;5050556;28;20048;-66
2021/03/03 03:16:24;;;;;;;24.38;12.38;;;;;;;;;;5050799;28;20056;-66
2021/03/03 03:19:42;;;;;;;27.50;12.05;;;;;;;;;;5050539;28;20051;-66
2021/03/03 03:22:47;;;;;;;23.23;12.43;;;;;;;;;;5050470;28;20039;-65
2021/03/03 03:25:53;;;;;;;21.05;12.23;;;;;;;;;;5050505;28;20044;-65
2021/03/03 03:28:57;;;;;;;22.17;11.38;;;;;;;;;;5050866;28;20187;-68
2021/03/03 03:32:02;;;;;;;26.20;12.50;;;;;;;;;;5050845;28;20503;-68
2021/03/03 03:35:07;;;;;;;24.70;12.35;;;;;;;;;;5049695;28;20040;-65
2021/03/03 03:38:11;;;;;;;20.35;12.50;;;;;;;;;;5050597;28;20052;-67
2021/03/03 03:41:16;;;;;;;22.80;12.60;;;;;;;;;;5050369;28;20044;-67
2021/03/03 03:44:20;;;;;;;19.52;12.60;;;;;;;;;;5050492;28;20052;-67
2021/03/03 03:47:25;;;;;;;21.90;12.82;;;;;;;;;;5050529;28;20120;-67
2021/03/03 03:50:29;;;;;;;19.02;11.80;;;;;;;;;;5054168;28;20056;-67
2021/03/03 03:53:34;;;;;;;19.70;12.32;;;;;;;;;;5054203;28;20044;-66
2021/03/03 03:56:43;;;;;;;19.95;12.55;;;;;;;;;;5053729;28;20431;-67
2021/03/03 03:59:47;;;;;;;22.13;13.10;;;;;;;;;;5053853;28;20052;-67
2021/03/03 04:02:51;;;;;;;22.83;12.43;;;;;;;;;;5053881;28;20060;-66
2021/03/03 04:05:56;;;;;;;17.88;11.82;;;;;;;;;;5053929;28;20050;-67
2021/03/03 04:09:00;;;;;;;22.17;12.80;;;;;;;;;;5053811;28;20586;-67
2021/03/03 04:12:05;;;;;;;21.90;12.70;;;;;;;;;;5053710;28;20051;-67
2021/03/03 04:15:09;;;;;;;23.48;12.80;;;;;;;;;;5053793;28;20032;-67
2021/03/03 04:18:14;;;;;;;20.42;13.00;;;;;;;;;;5053263;28;20044;-67
2021/03/03 04:21:19;;;;;;;21.40;12.73;;;;;;;;;;5053563;28;20052;-67
2021/03/03 04:24:23;;;;;;;28.48;13.75;;;;;;;;;;5053196;28;20045;-67
2021/03/03 04:27:27;;;;;;;22.75;12.98;;;;;;;;;;5053058;28;20064;-67
2021/03/03 04:30:32;;;;;;;22.30;13.70;;;;;;;;;;5053307;28;20048;-67
2021/03/03 04:33:37;;;;;;;24.48;12.98;;;;;;;;;;5053006;28;20048;-67
2021/03/03 04:36:44;;;;;;;23.88;13.45;;;;;;;;;;5053073;28;20040;-67
2021/03/03 04:39:51;;;;;;;22.63;13.20;;;;;;;;;;5052893;28;20060;-67
2021/03/03 04:42:56;;;;;;;19.83;13.18;;;;;;;;;;5053203;28;20592;-67
2021/03/03 04:46:00;;;;;;;27.15;13.38;;;;;;;;;;5052805;28;20535;-67
2021/03/03 04:49:04;;;;;;;28.88;14.18;;;;;;;;;;5052842;28;20048;-67
2021/03/03 04:52:09;;;;;;;22.60;13.20;;;;;;;;;;5052829;28;20048;-66
2021/03/03 04:55:13;;;;;;;26.80;13.38;;;;;;;;;;5052885;28;20472;-66
2021/03/03 04:58:18;;;;;;;26.88;12.43;;;;;;;;;;5052627;28;20507;-67
2021/03/03 05:01:22;;;;;;;24.23;12.48;;;;;;;;;;5052808;28;20060;-67
2021/03/03 05:04:26;;;;;;;38.10;11.35;;;;;;;;;;5052677;28;20210;-67
2021/03/03 05:07:31;;;;;;;27.63;12.27;;;;;;;;;;5052230;28;20044;-67
2021/03/03 05:10:35;;;;;;;32.25;12.35;;;;;;;;;;5052499;28;20048;-67
2021/03/03 05:13:39;;;;;;;33.78;12.77;;;;;;;;;;5052631;28;20056;-67
2021/03/03 05:16:44;;;;;;;26.45;12.48;;;;;;;;;;5052520;28;20056;-67
2021/03/03 05:19:49;;;;;;;34.60;12.48;;;;;;;;;;5052378;28;20047;-67
2021/03/03 05:22:54;;;;;;;23.50;12.02;;;;;;;;;;5052412;28;20044;-67
2021/03/03 05:25:59;;;;;;;33.45;13.15;;;;;;;;;;5052368;28;20052;-67
2021/03/03 05:29:03;;;;;;;27.50;13.45;;;;;;;;;;5052086;28;20052;-67
2021/03/03 05:32:07;;;;;;;28.80;12.10;;;;;;;;;;5055560;28;20055;-67
2021/03/03 05:35:12;;;;;;;29.92;12.70;;;;;;;;;;5052234;28;20503;-67
2021/03/03 05:38:17;;;;;;;29.58;14.85;;;;;;;;;;5050991;28;20052;-67
2021/03/03 05:41:22;;;;;;;30.88;13.15;;;;;;;;;;5052013;28;20056;-67
2021/03/03 05:44:27;;;;;;;37.83;13.88;;;;;;;;;;5052032;28;20040;-67
2021/03/03 05:47:34;;;;;;;26.13;12.73;;;;;;;;;;5051893;28;20044;-67
2021/03/03 05:50:39;;;;;;;33.15;13.45;;;;;;;;;;5051779;28;20048;-67
2021/03/03 05:53:44;;;;;;;38.95;15.27;;;;;;;;;;5052005;28;20392;-67
2021/03/03 05:56:49;;;;;;;36.80;15.15;;;;;;;;;;5051483;28;20044;-67
2021/03/03 06:00:14;;;;;;;22.55;12.05;;;;;;;;;;5050697;28;20056;-67
2021/03/03 06:03:18;;;;;;;23.17;13.13;;;;;;;;;;5051479;28;20048;-66
2021/03/03 06:06:22;;;;;;;39.70;15.18;;;;;;;;;;5051382;28;20044;-66
2021/03/03 06:09:26;;;;;;;47.70;15.80;;;;;;;;;;5051529;28;20048;-66
2021/03/03 06:12:31;;;;;;;42.92;17.48;;;;;;;;;;5051301;28;20518;-66
2021/03/03 06:15:35;;;;;;;32.78;14.45;;;;;;;;;;5051167;28;20040;-66
2021/03/03 06:18:39;;;;;;;38.20;16.08;;;;;;;;;;5051076;28;20051;-66
2021/03/03 06:21:44;;;;;;;32.17;15.00;;;;;;;;;;5051302;28;20051;-66
2021/03/03 06:24:48;;;;;;;43.42;18.17;;;;;;;;;;5051343;28;20044;-67
2021/03/03 06:27:53;;;;;;;26.90;15.95;;;;;;;;;;5050798;28;20040;-67
2021/03/03 06:30:58;;;;;;;39.38;15.02;;;;;;;;;;5051246;28;20036;-67
2021/03/03 06:34:10;;;;;;;32.15;16.33;;;;;;;;;;5051147;28;20044;-67
2021/03/03 06:37:15;;;;;;;31.83;14.32;;;;;;;;;;5050629;28;20048;-67
2021/03/03 06:40:20;;;;;;;32.67;15.35;;;;;;;;;;5050540;28;20056;-67
2021/03/03 06:43:28;;;;;;;37.58;16.23;;;;;;;;;;5050850;28;20048;-67
2021/03/03 06:46:32;;;;;;;49.40;17.90;;;;;;;;;;5050744;28;20044;-67
2021/03/03 06:49:37;;;;;;;45.35;21.52;;;;;;;;;;5050649;28;20051;-67
2021/03/03 06:52:43;;;;;;;43.47;21.05;;;;;;;;;;5049782;28;20044;-67
2021/03/03 06:55:49;;;;;;;36.75;21.95;;;;;;;;;;5050745;28;20112;-66
2021/03/03 06:58:53;;;;;;;38.83;21.25;;;;;;;;;;5050757;28;20052;-66
2021/03/03 07:02:13;;;;;;;58.33;25.52;;;;;;;;;;5050651;28;20052;-67
2021/03/03 07:05:18;;;;;;;41.42;23.35;;;;;;;;;;5050835;28;20056;-66
2021/03/03 07:08:22;;;;;;;43.50;22.33;;;;;;;;;;5050466;28;20511;-66
2021/03/03 07:11:29;;;;;;;49.88;22.10;;;;;;;;;;5050477;28;20393;-66
2021/03/03 07:14:33;;;;;;;56.80;23.67;;;;;;;;;;5050652;28;20052;-66
2021/03/03 07:17:38;;;;;;;76.07;25.95;;;;;;;;;;5050378;28;20055;-66
2021/03/03 07:20:46;;;;;;;58.58;26.52;;;;;;;;;;5050331;28;20047;-65
2021/03/03 07:23:50;;;;;;;50.97;24.88;;;;;;;;;;5052852;28;20111;-66
2021/03/03 07:26:55;;;;;;;54.30;25.50;;;;;;;;;;5053508;28;20040;-67
2021/03/03 07:30:00;;;;;;;49.33;25.88;;;;;;;;;;5054431;28;20052;-67
2021/03/03 07:33:05;;;;;;;47.80;25.02;;;;;;;;;;5054344;28;20048;-66
2021/03/03 07:36:09;;;;;;;58.58;29.30;;;;;;;;;;5053735;28;20044;-67
2021/03/03 07:39:13;;;;;;;56.35;26.83;;;;;;;;;;5054104;28;20044;-67
2021/03/03 07:42:23;;;;;;;56.83;30.35;;;;;;;;;;5053563;28;20040;-67
2021/03/03 07:45:38;;;;;;;58.80;30.67;;;;;;;;;;5054176;28;20064;-67
2021/03/03 07:48:44;;;;;;;58.00;29.67;;;;;;;;;;5053908;28;20380;-66
2021/03/03 07:51:49;;;;;;;67.88;29.58;;;;;;;;;;5053814;28;20059;-67
2021/03/03 07:54:57;;;;;;;63.35;28.95;;;;;;;;;;5054046;28;20048;-67
2021/03/03 07:58:02;;;;;;;54.75;29.92;;;;;;;;;;5054097;28;20052;-67
2021/03/03 08:01:10;;;;;;;67.35;35.35;;;;;;;;;;5053928;28;20507;-66
2021/03/03 08:04:34;;;;;;;49.60;28.63;;;;;;;;;;5053920;28;20044;-67
2021/03/03 08:07:38;;;;;;;46.05;27.35;;;;;;;;;;5053210;28;20048;-67
2021/03/03 08:10:42;;;;;;;62.15;29.27;;;;;;;;;;5053473;28;20044;-66
2021/03/03 08:13:46;;;;;;;46.25;25.42;;;;;;;;;;5052110;28;20248;-66
2021/03/03 08:16:55;;;;;;;57.72;29.30;;;;;;;;;;5053121;28;20036;-66
2021/03/03 08:19:59;;;;;;;46.88;26.73;;;;;;;;;;5053977;28;20056;-66
2021/03/03 08:23:04;;;;;;;47.88;27.55;;;;;;;;;;5053115;28;20040;-66
2021/03/03 08:26:12;;;;;;;49.97;27.08;;;;;;;;;;5053095;28;20049;-67
2021/03/03 08:29:18;;;;;;;43.13;27.35;;;;;;;;;;5052727;28;20048;-67
2021/03/03 08:32:23;;;;;;;46.58;26.42;;;;;;;;;;5053383;28;20401;-65
2021/03/03 08:35:38;;;;;;;59.78;28.13;;;;;;;;;;5052940;28;20052;-66
2021/03/03 08:38:42;;;;;;;50.85;26.10;;;;;;;;;;5053212;28;20048;-66
2021/03/03 08:41:47;;;;;;;46.97;24.52;;;;;;;;;;5052032;28;20619;-66
2021/03/03 08:44:59;;;;;;;32.95;22.45;;;;;;;;;;5052574;28;20056;-67
2021/03/03 08:48:10;;;;;;;32.40;20.90;;;;;;;;;;5052696;28;20040;-65
2021/03/03 08:51:21;;;;;;;33.03;20.63;;;;;;;;;;5052606;28;20047;-66
2021/03/03 08:54:25;;;;;;;;;;;;;;;;;;5052922;28;20040;-65
2021/03/03 08:57:31;;;;;;;37.25;22.42;;;;;;;;;;5052594;28;19920;-65
2021/03/03 09:00:48;;;;;;;33.53;20.98;;;;;;;;;;5052406;28;20060;-66
2021/03/03 09:03:53;;;;;;;34.17;21.88;;;;;;;;;;5052347;28;20055;-65
2021/03/03 09:07:02;;;;;;;29.98;21.23;;;;;;;;;;5052320;28;20060;-65
2021/03/03 09:10:09;;;;;;;31.05;19.98;;;;;;;;;;5052450;28;20040;-65
2021/03/03 09:13:23;;;;;;;32.42;19.85;;;;;;;;;;5052554;28;20055;-66
2021/03/03 09:16:27;;;;;;;35.65;20.20;;;;;;;;;;5052334;28;20051;-67
2021/03/03 09:19:35;;;;;;;26.50;18.25;;;;;;;;;;5051929;28;20044;-67
2021/03/03 09:22:41;;;;;;;29.85;19.60;;;;;;;;;;5051967;28;20059;-66
2021/03/03 09:25:45;;;;;;;21.83;17.58;;;;;;;;;;5051962;28;20045;-66
2021/03/03 09:28:50;;;;;;;25.15;17.48;;;;;;;;;;5052026;28;20051;-66
2021/03/03 09:31:55;;;;;;;26.08;15.38;;;;;;;;;;5052012;28;20048;-66
2021/03/03 09:35:02;;;;;;;25.35;16.30;;;;;;;;;;5052049;28;20067;-66
2021/03/03 09:38:10;;;;;;;29.48;18.25;;;;;;;;;;5051998;28;20043;-67
2021/03/03 09:41:19;;;;;;;23.92;17.23;;;;;;;;;;5051618;28;20073;-66
2021/03/03 09:44:25;;;;;;;31.55;18.08;;;;;;;;;;5051514;28;20703;-67
2021/03/03 09:47:31;;;;;;;29.42;19.15;;;;;;;;;;5051211;28;20052;-67
2021/03/03 09:50:35;;;;;;;34.85;17.60;;;;;;;;;;5051491;28;20060;-66
2021/03/03 09:53:50;;;;;;;24.77;16.17;;;;;;;;;;5051727;28;20519;-65
2021/03/03 09:56:54;;;;;;;28.05;16.88;;;;;;;;;;5051762;28;20475;-65
2021/03/03 09:59:59;;;;;;;21.17;14.88;;;;;;;;;;5051209;28;20052;-65
2021/03/03 10:03:05;;;;;;;23.50;15.32;;;;;;;;;;5050775;28;20040;-67
2021/03/03 10:06:10;;;;;;;23.10;15.18;;;;;;;;;;5050451;28;20511;-67
2021/03/03 10:09:14;;;;;;;21.05;14.40;;;;;;;;;;5050949;28;20047;-66
2021/03/03 10:12:20;;;;;;;25.17;14.40;;;;;;;;;;5051426;28;20414;-66
2021/03/03 10:15:30;;;;;;;19.63;12.50;;;;;;;;;;5051121;28;20039;-67
2021/03/03 10:18:34;;;;;;;23.08;13.05;;;;;;;;;;5051304;28;20052;-67
2021/03/03 10:21:44;;;;;;;18.15;12.80;;;;;;;;;;5050932;28;20047;-67
2021/03/03 10:24:59;;;;;;;17.83;11.43;;;;;;;;;;5050799;28;20044;-69
2021/03/03 10:28:23;;;;;;;19.17;10.40;;;;;;;;;;5050942;28;20041;-67
2021/03/03 10:31:28;;;;;;;14.27;7.53;;;;;;;;;;5051042;28;20040;-67
2021/03/03 10:34:32;;;;;;;12.13;7.40;;;;;;;;;;5051182;28;20041;-67
2021/03/03 10:37:36;;;;;;;8.75;5.93;;;;;;;;;;5050711;28;20041;-66
2021/03/03 10:40:41;;;;;;;7.47;4.57;;;;;;;;;;5050719;28;20515;-66
2021/03/03 10:43:50;;;;;;;7.53;4.45;;;;;;;;;;5050926;28;20037;-67
2021/03/03 10:46:54;;;;;;;11.10;4.97;;;;;;;;;;5051012;28;20037;-66
2021/03/03 10:50:06;;;;;;;5.68;4.63;;;;;;;;;;5050375;28;20049;-66
2021/03/03 10:53:10;;;;;;;11.75;6.20;;;;;;;;;;5050912;28;20037;-66
2021/03/03 10:56:34;;;;;;;8.63;6.20;;;;;;;;;;5050257;28;20029;-67
2021/03/03 10:59:39;;;;;;;13.15;7.05;;;;;;;;;;5055074;28;20389;-66
2021/03/03 11:02:43;;;;;;;14.13;7.50;;;;;;;;;;5053946;28;20044;-67
2021/03/03 11:05:54;;;;;;;18.88;8.48;;;;;;;;;;5054032;28;20037;-67
2021/03/03 11:09:00;;;;;;;9.23;6.85;;;;;;;;;;5054863;28;20522;-67
2021/03/03 11:12:05;;;;;;;14.10;7.47;;;;;;;;;;5054778;28;20045;-67
2021/03/03 11:15:10;;;;;;;13.15;7.20;;;;;;;;;;5054876;28;20381;-66
2021/03/03 11:18:14;;;;;;;22.00;8.30;;;;;;;;;;5054634;28;20064;-66
2021/03/03 11:21:19;;;;;;;11.45;7.63;;;;;;;;;;5053516;28;20044;-66
2021/03/03 11:24:24;;;;;;;8.50;6.20;;;;;;;;;;5054524;28;20033;-65
2021/03/03 11:27:31;;;;;;;15.50;6.40;;;;;;;;;;5054209;28;20480;-66
2021/03/03 11:30:36;;;;;;;14.45;6.13;;;;;;;;;;5054240;28;20099;-68
2021/03/03 11:33:40;;;;;;;9.25;5.80;;;;;;;;;;5054384;28;20503;-67
2021/03/03 11:36:45;;;;;;;15.35;5.75;;;;;;;;;;5054152;28;20488;-66
2021/03/03 11:39:51;;;;;;;13.95;6.00;;;;;;;;;;5053047;28;20403;-67
2021/03/03 11:42:55;;;;;;;9.60;5.63;;;;;;;;;;5053055;28;20507;-67
2021/03/03 11:45:59;;;;;;;10.45;5.85;;;;;;;;;;5054040;28;20049;-66
2021/03/03 11:49:07;;;;;;;10.73;5.50;;;;;;;;;;5053642;28;20060;-66
2021/03/03 11:52:11;;;;;;;16.45;6.32;;;;;;;;;;5053723;28;20044;-66
2021/03/03 11:55:16;;;;;;;11.52;6.80;;;;;;;;;;5053710;28;20040;-66
2021/03/03 11:58:20;;;;;;;17.42;7.07;;;;;;;;;;5053638;28;20487;-66
2021/03/03 12:01:24;;;;;;;17.40;6.57;;;;;;;;;;5052621;28;20045;-66
2021/03/03 12:04:29;;;;;;;10.57;6.38;;;;;;;;;;5053241;28;20036;-66
2021/03/03 12:07:34;;;;;;;15.18;7.47;;;;;;;;;;5052252;28;20047;-66
2021/03/03 12:10:39;;;;;;;14.50;6.60;;;;;;;;;;5053422;28;20096;-66
2021/03/03 12:13:44;;;;;;;9.77;6.20;;;;;;;;;;5053714;28;20052;-66
2021/03/03 12:16:48;;;;;;;13.88;7.13;;;;;;;;;;5053533;28;20033;-66
2021/03/03 12:19:52;;;;;;;8.65;6.15;;;;;;;;;;5053184;28;20049;-66
2021/03/03 12:22:58;;;;;;;15.32;8.40;;;;;;;;;;5052520;28;20037;-66
2021/03/03 12:26:06;;;;;;;22.67;8.05;;;;;;;;;;5053433;28;20041;-66
2021/03/03 12:29:11;;;;;;;14.18;6.10;;;;;;;;;;5052121;28;20037;-66
2021/03/03 12:32:16;;;;;;;9.55;5.75;;;;;;;;;;5053204;28;20048;-67
2021/03/03 12:35:20;;;;;;;13.93;7.95;;;;;;;;;;5053388;28;20064;-66
2021/03/03 12:38:24;;;;;;;16.25;7.20;;;;;;;;;;5053118;28;20041;-68
2021/03/03 12:41:29;;;;;;;11.20;6.40;;;;;;;;;;5052929;28;20057;-66
2021/03/03 12:44:33;;;;;;;15.55;7.18;;;;;;;;;;5052008;28;20497;-66
2021/03/03 12:47:37;;;;;;;16.52;7.80;;;;;;;;;;5052987;28;20040;-68
2021/03/03 12:50:42;;;;;;;17.15;12.07;;;;;;;;;;5052761;28;20158;-66
2021/03/03 12:53:46;;;;;;;18.63;7.97;;;;;;;;;;5053002;28;20395;-66
2021/03/03 12:56:50;;;;;;;13.52;7.75;;;;;;;;;;5052868;28;20036;-66
2021/03/03 12:59:55;;;;;;;10.38;7.45;;;;;;;;;;5052868;28;20037;-66
2021/03/03 13:02:59;;;;;;;11.43;7.30;;;;;;;;;;5052668;28;20041;-66
2021/03/03 13:06:03;;;;;;;12.80;7.15;;;;;;;;;;5052424;28;20039;-66
2021/03/03 13:09:09;;;;;;;12.75;7.35;;;;;;;;;;5051659;28;20447;-65
2021/03/03 13:12:13;;;;;;;9.38;6.72;;;;;;;;;;5049647;28;20041;-66
2021/03/03 13:15:18;;;;;;;21.95;9.20;;;;;;;;;;5049707;28;20374;-66
2021/03/03 13:18:24;;;;;;;14.25;8.20;;;;;;;;;;5052604;28;20044;-66
2021/03/03 13:21:28;;;;;;;16.15;7.28;;;;;;;;;;5051828;28;20047;-66
2021/03/03 13:24:33;;;;;;;17.15;8.70;;;;;;;;;;5052440;28;20397;-66
2021/03/03 13:27:38;;;;;;;15.05;8.20;;;;;;;;;;5052237;28;20503;-66
2021/03/03 13:30:47;;;;;;;12.40;7.38;;;;;;;;;;5051961;28;20042;-66
2021/03/03 13:33:51;;;;;;;10.52;7.30;;;;;;;;;;5051815;28;20029;-66
2021/03/03 13:36:55;;;;;;;12.70;7.32;;;;;;;;;;5051827;28;20580;-65
2021/03/03 13:39:59;;;;;;;17.00;8.57;;;;;;;;;;5052064;28;20064;-65
2021/03/03 13:43:04;;;;;;;12.27;8.60;;;;;;;;;;5051822;28;20365;-65
2021/03/03 13:46:08;;;;;;;12.60;8.48;;;;;;;;;;5051895;28;20060;-65
2021/03/03 13:49:12;;;;;;;16.95;7.93;;;;;;;;;;5051426;28;20048;-66
2021/03/03 13:52:17;;;;;;;13.38;8.15;;;;;;;;;;5051488;28;20040;-66
2021/03/03 13:55:21;;;;;;;22.65;9.27;;;;;;;;;;5051876;28;20048;-66
2021/03/03 13:58:25;;;;;;;13.57;8.50;;;;;;;;;;5051686;28;20468;-66
2021/03/03 14:01:30;;;;;;;18.83;8.45;;;;;;;;;;5051279;28;20200;-67
2021/03/03 14:04:34;;;;;;;34.95;11.95;;;;;;;;;;5051707;28;20029;-65
2021/03/03 14:07:38;;;;;;;21.98;9.35;;;;;;;;;;5051396;28;20048;-65
2021/03/03 14:10:42;;;;;;;16.58;8.88;;;;;;;;;;5051420;28;20043;-66
2021/03/03 14:13:47;;;;;;;12.88;8.05;;;;;;;;;;5051213;28;20044;-66
2021/03/03 14:16:52;;;;;;;20.23;8.73;;;;;;;;;;5050847;28;20396;-67
2021/03/03 14:19:56;;;;;;;12.27;7.65;;;;;;;;;;5050543;28;20036;-66
2021/03/03 14:23:01;;;;;;;37.65;17.45;;;;;;;;;;5050970;28;20049;-66
2021/03/03 14:26:06;;;;;;;13.52;8.73;;;;;;;;;;5050931;28;20527;-66
2021/03/03 14:29:10;;;;;;;20.85;9.90;;;;;;;;;;5050998;28;20044;-65
2021/03/03 14:32:15;;;;;;;15.90;8.10;;;;;;;;;;5050530;28;20044;-65
2021/03/03 14:35:19;;;;;;;17.60;8.95;;;;;;;;;;5051026;28;20037;-66
2021/03/03 14:38:24;;;;;;;16.92;8.73;;;;;;;;;;5050954;28;20037;-66
2021/03/03 14:41:28;;;;;;;18.08;8.50;;;;;;;;;;5050673;28;20527;-67
2021/03/03 14:44:33;;;;;;;16.15;8.63;;;;;;;;;;5050918;28;20041;-67
2021/03/03 14:47:37;;;;;;;23.02;8.55;;;;;;;;;;5050264;28;20048;-67
2021/03/03 14:50:41;;;;;;;15.68;8.88;;;;;;;;;;5050876;28;20400;-66
2021/03/03 14:53:46;;;;;;;11.05;8.25;;;;;;;;;;5050825;28;20041;-66
2021/03/03 14:56:51;;;;;;;14.70;8.68;;;;;;;;;;5050667;28;20373;-67
2021/03/03 14:59:55;;;;;;;38.92;22.98;;;;;;;;;;5050714;28;20067;-65
2021/03/03 15:02:59;;;;;;;21.45;9.35;;;;;;;;;;5050939;28;20055;-67
2021/03/03 15:06:04;;;;;;;33.92;10.68;;;;;;;;;;5051172;28;20485;-66
2021/03/03 15:09:08;;;;;;;38.17;10.48;;;;;;;;;;5050448;28;20051;-66
2021/03/03 15:12:15;;;;;;;15.10;9.07;;;;;;;;;;5050747;28;20397;-67
2021/03/03 15:15:20;;;;;;;18.92;9.07;;;;;;;;;;5050279;28;20029;-66
2021/03/03 15:18:25;;;;;;;18.60;9.27;;;;;;;;;;5050340;28;20033;-65
2021/03/03 15:21:30;;;;;;;21.13;10.20;;;;;;;;;;5050397;28;20056;-67
2021/03/03 15:24:34;;;;;;;25.55;15.25;;;;;;;;;;5050837;28;20044;-66
2021/03/03 15:27:39;;;;;;;16.08;9.70;;;;;;;;;;5050633;28;20056;-66
2021/03/03 15:30:43;;;;;;;22.95;10.30;;;;;;;;;;5049703;28;20510;-65
2021/03/03 15:33:48;;;;;;;30.70;9.77;;;;;;;;;;5050404;28;20052;-67
2021/03/03 15:36:52;;;;;;;17.80;8.80;;;;;;;;;;5049953;28;20040;-67
2021/03/03 15:39:56;;;;;;;19.35;8.95;;;;;;;;;;5050388;28;20044;-67
2021/03/03 15:43:00;;;;;;;18.00;9.52;;;;;;;;;;5050368;28;20637;-67
2021/03/03 15:46:05;;;;;;;22.65;9.75;;;;;;;;;;5054103;28;20037;-67
2021/03/03 15:49:10;;;;;;;17.05;10.27;;;;;;;;;;5053917;28;20412;-66
2021/03/03 15:52:14;;;;;;;20.67;10.65;;;;;;;;;;5054031;28;20048;-67
2021/03/03 15:55:18;;;;;;;20.00;10.43;;;;;;;;;;5053978;28;20048;-66
2021/03/03 15:58:23;;;;;;;17.33;11.45;;;;;;;;;;5053894;28;20052;-68
2021/03/03 16:01:28;;;;;;;31.70;12.27;;;;;;;;;;5053565;28;20056;-66
2021/03/03 16:07:32;;;;;;;22.60;11.30;;;;;;;;;;4901242;28;20050;-68
2021/03/03 16:10:36;;;;;;;50.33;14.43;;;;;;;;;;5013854;28;20098;-68
2021/03/03 16:13:41;;;;;;;31.25;11.25;;;;;;;;;;5013507;28;20061;-68
2021/03/03 16:16:45;;;;;;;44.88;26.45;;;;;;;;;;5001811;28;20041;-69
2021/03/03 16:19:49;;;;;;;32.67;13.15;;;;;;;;;;5013440;28;20420;-67
2021/03/03 16:22:54;;;;;;;23.42;10.68;;;;;;;;;;5013283;28;20069;-68
2021/03/03 16:25:58;;;;;;;27.88;10.50;;;;;;;;;;5013188;28;20041;-70
2021/03/03 16:29:03;;;;;;;20.25;10.38;;;;;;;;;;5013658;28;20401;-69
2021/03/03 16:32:09;;;;;;;17.98;11.30;;;;;;;;;;5013654;28;20045;-69
2021/03/03 16:35:14;;;;;;;75.78;38.58;;;;;;;;;;5013568;28;20065;-68
2021/03/03 16:38:25;;;;;;;26.55;13.15;;;;;;;;;;5013590;28;20052;-68
2021/03/03 16:41:31;;;;;;;46.03;21.88;;;;;;;;;;5013211;28;20056;-68
2021/03/03 16:44:35;;;;;;;27.92;15.30;;;;;;;;;;5013283;28;20041;-69
2021/03/03 16:47:40;;;;;;;29.98;14.02;;;;;;;;;;5013052;28;20041;-68
2021/03/03 16:50:44;;;;;;;26.60;14.68;;;;;;;;;;5013135;28;20052;-67
2021/03/03 16:53:48;;;;;;;26.73;13.85;;;;;;;;;;5013085;28;20504;-68
2021/03/03 16:56:56;;;;;;;30.08;16.00;;;;;;;;;;5012881;28;20045;-67
2021/03/03 17:00:07;;;;;;;28.02;16.23;;;;;;;;;;5013083;28;20049;-68
2021/03/03 17:03:11;;;;;;;31.60;16.33;;;;;;;;;;5012765;28;20049;-66
2021/03/03 17:06:16;;;;;;;34.40;16.95;;;;;;;;;;5012242;28;20041;-67
2021/03/03 17:09:20;;;;;;;33.28;17.02;;;;;;;;;;5012490;28;20117;-66
2021/03/03 17:12:25;;;;;;;32.92;16.73;;;;;;;;;;5012379;28;20037;-67
2021/03/03 17:15:30;;;;;;;34.00;18.75;;;;;;;;;;5012590;28;20064;-66
2021/03/03 17:18:37;;;;;;;40.28;24.67;;;;;;;;;;5012478;28;20101;-68
2021/03/03 17:21:41;;;;;;;46.50;22.65;;;;;;;;;;5000024;28;20060;-68
2021/03/03 17:24:48;;;;;;;40.30;21.58;;;;;;;;;;5012082;28;20045;-68
2021/03/03 17:27:53;;;;;;;38.67;19.92;;;;;;;;;;5012434;28;20500;-68
2021/03/03 17:30:57;;;;;;;43.72;19.63;;;;;;;;;;5012094;28;20045;-67
2021/03/03 17:34:20;;;;;;;50.30;20.25;;;;;;;;;;5012254;28;20519;-68
2021/03/03 17:37:24;;;;;;;50.45;19.13;;;;;;;;;;5000080;28;20040;-67
2021/03/03 17:40:31;;;;;;;53.90;18.70;;;;;;;;;;5011929;28;20048;-68
2021/03/03 17:43:36;;;;;;;52.75;21.20;;;;;;;;;;5012223;28;20122;-69
2021/03/03 17:46:40;;;;;;;50.85;22.60;;;;;;;;;;5012090;28;20037;-69
2021/03/03 17:49:44;;;;;;;62.72;22.13;;;;;;;;;;5011793;28;20083;-69
2021/03/03 17:52:49;;;;;;;52.47;25.10;;;;;;;;;;4999857;28;20514;-69
2021/03/03 17:55:53;;;;;;;54.75;20.45;;;;;;;;;;5011722;28;20045;-69
2021/03/03 17:58:58;;;;;;;46.10;19.83;;;;;;;;;;5011707;28;20117;-68
2021/03/03 18:02:02;;;;;;;49.20;18.17;;;;;;;;;;5011810;28;20061;-69
2021/03/03 18:05:07;;;;;;;41.28;19.58;;;;;;;;;;5011735;28;20041;-67
2021/03/03 18:08:12;;;;;;;48.67;19.95;;;;;;;;;;5010836;28;20052;-67